Time;durP1;ratioP1;P1;durP2;ratioP2;P2;SDS_P1;SDS_P2;PMS_P1;PMS_P2;Temp;Humidity;BMP_temperature;BMP_pressure;BME280_temperature;BME280_humidity;BME280_pressure;Samples;Min_cycle;Max_cycle;Signal;HPM_P1;HPM_P2
2022/05/09 00:00:29;;;;;;;54.47;11.32;;;;;;;;;;5031333;28;20458;-43
2022/05/09 00:02:56;;;;;;;47.78;10.40;;;;;;;;;;5031399;28;20037;-50
2022/05/09 00:05:24;;;;;;;48.05;11.23;;;;;;;;;;5031027;28;20542;-46
2022/05/09 00:07:51;;;;;;;44.00;9.30;;;;;;;;;;5013556;28;20033;-44
2022/05/09 00:10:22;;;;;;;56.58;8.98;;;;;;;;;;5031571;28;20056;-52
2022/05/09 00:12:49;;;;;;;55.42;11.18;;;;;;;;;;5031317;28;20060;-45
2022/05/09 00:15:18;;;;;;;60.38;11.20;;;;;;;;;;5016270;28;20025;-50
2022/05/09 00:17:48;;;;;;;53.75;10.88;;;;;;;;;;5011792;28;20026;-47
2022/05/09 00:20:18;;;;;;;55.72;10.00;;;;;;;;;;5011311;28;20076;-46
2022/05/09 00:22:52;;;;;;;45.45;10.70;;;;;;;;;;5010563;28;20076;-50
2022/05/09 00:25:24;;;;;;;48.17;11.30;;;;;;;;;;5010724;28;20022;-47
2022/05/09 00:27:51;;;;;;;52.60;9.77;;;;;;;;;;5010434;28;20477;-44
2022/05/09 00:30:18;;;;;;;46.20;10.60;;;;;;;;;;5011429;28;20033;-49
2022/05/09 00:32:45;;;;;;;50.92;10.20;;;;;;;;;;4978128;28;20033;-47
2022/05/09 00:35:13;;;;;;;44.25;9.88;;;;;;;;;;5010908;28;20026;-47
2022/05/09 00:37:41;;;;;;;45.72;9.20;;;;;;;;;;5011899;28;20065;-48
2022/05/09 00:40:09;;;;;;;57.65;11.25;;;;;;;;;;5011700;28;20456;-44
2022/05/09 00:42:40;;;;;;;53.42;10.77;;;;;;;;;;5011139;28;20030;-48
2022/05/09 00:45:08;;;;;;;41.55;10.07;;;;;;;;;;5011131;28;20049;-50
2022/05/09 00:47:35;;;;;;;53.65;9.80;;;;;;;;;;5011474;28;20050;-45
2022/05/09 00:50:05;;;;;;;42.92;10.40;;;;;;;;;;5011070;28;20056;-44
2022/05/09 00:52:32;;;;;;;38.50;10.18;;;;;;;;;;5011583;28;20112;-45
2022/05/09 00:55:04;;;;;;;41.58;9.48;;;;;;;;;;5011369;28;20041;-48
2022/05/09 00:57:31;;;;;;;53.10;11.32;;;;;;;;;;5010873;28;20068;-44
2022/05/09 01:00:01;;;;;;;48.10;12.35;;;;;;;;;;5011391;28;20026;-49
2022/05/09 01:02:28;;;;;;;48.72;10.02;;;;;;;;;;5011219;28;20361;-47
2022/05/09 01:04:57;;;;;;;51.05;10.85;;;;;;;;;;5010273;28;20104;-46
2022/05/09 01:07:25;;;;;;;48.45;11.73;;;;;;;;;;5005079;28;20102;-51
2022/05/09 01:09:52;;;;;;;45.88;12.23;;;;;;;;;;5000004;28;20025;-47
2022/05/09 01:12:22;;;;;;;52.22;12.23;;;;;;;;;;5006904;28;20029;-46
2022/05/09 01:14:50;;;;;;;40.45;10.85;;;;;;;;;;5013480;28;20491;-44
2022/05/09 01:17:17;;;;;;;35.03;10.65;;;;;;;;;;5030433;28;20026;-47
2022/05/09 01:19:45;;;;;;;40.47;11.57;;;;;;;;;;5030458;28;20509;-45
2022/05/09 01:22:20;;;;;;;40.03;11.50;;;;;;;;;;5034718;28;20031;-45
2022/05/09 01:24:47;;;;;;;48.15;11.30;;;;;;;;;;5034637;28;20025;-45
2022/05/09 01:27:14;;;;;;;47.40;11.05;;;;;;;;;;5034369;28;20021;-45
2022/05/09 01:30:00;;;;;;;45.90;11.05;;;;;;;;;;5016440;28;20091;-46
2022/05/09 01:32:38;;;;;;;48.38;11.38;;;;;;;;;;5034604;28;20523;-46
2022/05/09 01:35:08;;;;;;;34.75;10.93;;;;;;;;;;5034448;28;20033;-45
2022/05/09 01:37:37;;;;;;;45.70;10.27;;;;;;;;;;5034333;28;20040;-47
2022/05/09 01:40:04;;;;;;;44.60;10.02;;;;;;;;;;5031216;28;20026;-47
2022/05/09 01:42:35;;;;;;;41.38;8.27;;;;;;;;;;5034197;28;20090;-47
2022/05/09 01:45:03;;;;;;;38.28;8.15;;;;;;;;;;5033875;28;20037;-53
2022/05/09 01:50:16;;;;;;;40.78;9.98;;;;;;;;;;5034558;28;20052;-47
2022/05/09 01:52:44;;;;;;;41.35;8.27;;;;;;;;;;5021952;28;20033;-45
2022/05/09 01:55:12;;;;;;;37.85;8.45;;;;;;;;;;5014323;28;20030;-44
2022/05/09 01:57:39;;;;;;;33.35;8.23;;;;;;;;;;5014857;28;20775;-44
2022/05/09 02:00:08;;;;;;;35.58;9.88;;;;;;;;;;5014803;28;20507;-48
2022/05/09 02:02:39;;;;;;;35.30;8.70;;;;;;;;;;5014610;28;20040;-47
2022/05/09 02:05:07;;;;;;;34.80;7.57;;;;;;;;;;5014585;28;20113;-44
2022/05/09 02:07:35;;;;;;;31.05;8.05;;;;;;;;;;5014796;28;20022;-44
2022/05/09 02:10:03;;;;;;;30.77;7.72;;;;;;;;;;5014766;28;20026;-46
2022/05/09 02:12:31;;;;;;;31.58;8.02;;;;;;;;;;5014685;28;20459;-46
2022/05/09 02:14:59;;;;;;;35.53;8.73;;;;;;;;;;5014373;28;20034;-46
2022/05/09 02:17:29;;;;;;;33.47;9.55;;;;;;;;;;5014722;28;20026;-49
2022/05/09 02:19:58;;;;;;;28.98;8.25;;;;;;;;;;5014504;28;20061;-47
2022/05/09 02:22:26;;;;;;;24.20;7.57;;;;;;;;;;5012979;28;20126;-44
2022/05/09 02:24:54;;;;;;;29.55;8.70;;;;;;;;;;5014111;28;20038;-47
2022/05/09 02:27:23;;;;;;;27.60;8.40;;;;;;;;;;5014530;28;20479;-45
2022/05/09 02:29:50;;;;;;;26.33;6.57;;;;;;;;;;5010013;28;20045;-49
2022/05/09 02:32:19;;;;;;;27.17;6.72;;;;;;;;;;4998233;28;20487;-44
2022/05/09 02:34:48;;;;;;;27.48;6.40;;;;;;;;;;5013675;28;20068;-46
2022/05/09 02:37:18;;;;;;;25.92;7.25;;;;;;;;;;5013528;28;20083;-52
2022/05/09 02:39:46;;;;;;;29.63;6.53;;;;;;;;;;5013829;28;20042;-43
2022/05/09 02:42:13;;;;;;;28.10;7.78;;;;;;;;;;5014045;28;20505;-43
2022/05/09 02:44:41;;;;;;;25.52;7.97;;;;;;;;;;5013884;28;20207;-46
2022/05/09 02:47:09;;;;;;;23.60;6.60;;;;;;;;;;5013950;28;20056;-44
2022/05/09 02:49:37;;;;;;;25.90;5.72;;;;;;;;;;5013957;28;20063;-44
2022/05/09 02:52:05;;;;;;;24.20;5.53;;;;;;;;;;5021336;28;20502;-49
2022/05/09 02:54:32;;;;;;;25.42;5.25;;;;;;;;;;5024345;28;20029;-45
2022/05/09 02:57:00;;;;;;;26.92;6.22;;;;;;;;;;5021503;28;20022;-48
2022/05/09 02:59:28;;;;;;;22.48;5.40;;;;;;;;;;5013375;28;20037;-44
2022/05/09 03:01:56;;;;;;;22.98;5.53;;;;;;;;;;5013792;28;20027;-48
2022/05/09 03:04:39;;;;;;;25.67;4.95;;;;;;;;;;5013475;28;20038;-43
2022/05/09 03:07:11;;;;;;;27.98;5.72;;;;;;;;;;5013871;28;20491;-45
2022/05/09 03:09:41;;;;;;;26.83;4.82;;;;;;;;;;4996178;28;20373;-44
2022/05/09 03:12:09;;;;;;;16.95;4.65;;;;;;;;;;5022673;28;20068;-42
2022/05/09 03:14:37;;;;;;;19.80;5.20;;;;;;;;;;5030051;28;20021;-43
2022/05/09 03:17:05;;;;;;;24.15;5.22;;;;;;;;;;5019051;28;20080;-46
2022/05/09 03:19:33;;;;;;;26.35;5.72;;;;;;;;;;4995727;28;20033;-46
2022/05/09 03:22:00;;;;;;;23.05;4.53;;;;;;;;;;5024828;28;20080;-48
2022/05/09 03:24:28;;;;;;;22.63;4.93;;;;;;;;;;5024640;28;20034;-42
2022/05/09 03:26:55;;;;;;;17.45;4.78;;;;;;;;;;5032790;28;20048;-43
2022/05/09 03:29:24;;;;;;;15.02;4.03;;;;;;;;;;5032820;28;20041;-43
2022/05/09 03:31:52;;;;;;;19.83;4.75;;;;;;;;;;5032920;28;20044;-43
2022/05/09 03:34:22;;;;;;;20.00;4.40;;;;;;;;;;5032724;28;20494;-42
2022/05/09 03:36:51;;;;;;;22.73;4.72;;;;;;;;;;5032881;28;20028;-45
2022/05/09 03:39:19;;;;;;;15.63;4.45;;;;;;;;;;5032834;28;20391;-45
2022/05/09 03:41:46;;;;;;;18.15;4.63;;;;;;;;;;5032736;28;20437;-43
2022/05/09 03:44:13;;;;;;;20.48;4.43;;;;;;;;;;5032389;28;20046;-45
2022/05/09 03:46:41;;;;;;;17.42;3.97;;;;;;;;;;5032686;28;20119;-43
2022/05/09 03:49:10;;;;;;;15.73;4.30;;;;;;;;;;5032736;28;20044;-44
2022/05/09 03:51:37;;;;;;;16.30;4.43;;;;;;;;;;5032794;28;20045;-43
2022/05/09 03:54:04;;;;;;;12.65;4.18;;;;;;;;;;5032750;28;20022;-46
2022/05/09 03:56:31;;;;;;;18.73;3.95;;;;;;;;;;5032779;28;20057;-44
2022/05/09 03:58:58;;;;;;;17.33;3.75;;;;;;;;;;5032816;28;20026;-46
2022/05/09 04:01:25;;;;;;;14.27;3.45;;;;;;;;;;5032627;28;20033;-42
2022/05/09 04:03:52;;;;;;;16.33;3.97;;;;;;;;;;5032511;28;20697;-45
2022/05/09 04:06:21;;;;;;;14.75;4.22;;;;;;;;;;5032583;28;20029;-44
2022/05/09 04:08:48;;;;;;;18.90;3.60;;;;;;;;;;5032461;28;20037;-42
2022/05/09 04:11:14;;;;;;;12.68;3.42;;;;;;;;;;5032469;28;20030;-46
2022/05/09 04:13:41;;;;;;;19.15;4.22;;;;;;;;;;5032325;28;20368;-52
2022/05/09 04:18:56;;;;;;;16.13;4.10;;;;;;;;;;5032471;28;20052;-44
2022/05/09 04:21:23;;;;;;;11.35;3.30;;;;;;;;;;5032226;28;20045;-43
2022/05/09 04:23:55;;;;;;;14.40;4.10;;;;;;;;;;5032220;28;20148;-43
2022/05/09 04:26:26;;;;;;;15.20;3.58;;;;;;;;;;5032277;28;20108;-43
2022/05/09 04:28:53;;;;;;;14.13;3.95;;;;;;;;;;5032303;28;20103;-48
2022/05/09 04:31:22;;;;;;;13.27;3.72;;;;;;;;;;5014510;28;20496;-43
2022/05/09 04:33:49;;;;;;;9.80;3.33;;;;;;;;;;5032076;28;20376;-43
2022/05/09 04:36:16;;;;;;;12.77;3.42;;;;;;;;;;5032171;28;20025;-43
2022/05/09 04:38:45;;;;;;;12.68;3.15;;;;;;;;;;5032161;28;20021;-43
2022/05/09 04:41:13;;;;;;;14.50;3.28;;;;;;;;;;5031978;28;20053;-43
2022/05/09 04:43:40;;;;;;;7.50;2.85;;;;;;;;;;5032013;28;20033;-42
2022/05/09 04:46:07;;;;;;;10.25;2.85;;;;;;;;;;5031611;28;20056;-42
2022/05/09 04:48:34;;;;;;;11.15;3.20;;;;;;;;;;5032088;28;20025;-42
2022/05/09 04:51:01;;;;;;;12.15;3.03;;;;;;;;;;5032062;28;20036;-42
2022/05/09 04:53:28;;;;;;;9.75;3.00;;;;;;;;;;5032107;28;20025;-42
2022/05/09 04:55:56;;;;;;;10.68;3.40;;;;;;;;;;5033845;28;20479;-48
2022/05/09 04:58:23;;;;;;;10.00;2.80;;;;;;;;;;5036030;28;20029;-43
2022/05/09 05:00:50;;;;;;;9.40;3.13;;;;;;;;;;5035898;28;20022;-43
2022/05/09 05:03:18;;;;;;;11.98;2.85;;;;;;;;;;5035876;28;20040;-44
2022/05/09 05:05:44;;;;;;;6.65;2.63;;;;;;;;;;5035760;28;20034;-43
2022/05/09 05:08:15;;;;;;;11.57;2.88;;;;;;;;;;5035459;28;20399;-43
2022/05/09 05:10:42;;;;;;;11.93;3.03;;;;;;;;;;5035366;28;20522;-44
2022/05/09 05:13:09;;;;;;;7.68;3.00;;;;;;;;;;5035718;28;20084;-45
2022/05/09 05:15:36;;;;;;;10.50;3.22;;;;;;;;;;5035637;28;20151;-45
2022/05/09 05:18:03;;;;;;;9.82;2.63;;;;;;;;;;5035638;28;20500;-42
2022/05/09 05:20:31;;;;;;;9.05;2.95;;;;;;;;;;5035648;28;20025;-45
2022/05/09 05:22:58;;;;;;;8.38;2.85;;;;;;;;;;5035428;28;20044;-43
2022/05/09 05:25:26;;;;;;;16.70;3.75;;;;;;;;;;5035391;28;20104;-44
2022/05/09 05:27:53;;;;;;;10.23;3.08;;;;;;;;;;5035368;28;20033;-43
2022/05/09 05:30:21;;;;;;;9.40;2.72;;;;;;;;;;5035459;28;20025;-42
2022/05/09 05:32:48;;;;;;;8.48;2.72;;;;;;;;;;5035314;28;20037;-46
2022/05/09 05:35:17;;;;;;;8.52;2.42;;;;;;;;;;5035212;28;20025;-43
2022/05/09 05:37:44;;;;;;;9.73;2.38;;;;;;;;;;5035260;28;20021;-42
2022/05/09 05:40:11;;;;;;;9.38;2.53;;;;;;;;;;5035209;28;20048;-43
2022/05/09 05:42:40;;;;;;;10.73;2.78;;;;;;;;;;5035050;28;20407;-46
2022/05/09 05:45:08;;;;;;;7.75;2.55;;;;;;;;;;5035077;28;20036;-46
2022/05/09 05:47:35;;;;;;;8.50;2.40;;;;;;;;;;5034889;28;20566;-44
2022/05/09 05:50:03;;;;;;;9.23;2.75;;;;;;;;;;5035087;28;20056;-43
2022/05/09 05:52:31;;;;;;;10.65;2.47;;;;;;;;;;5035030;28;20459;-45
2022/05/09 05:54:58;;;;;;;9.02;2.85;;;;;;;;;;5035085;28;20037;-43
2022/05/09 05:57:26;;;;;;;7.90;2.30;;;;;;;;;;5035219;28;20402;-48
2022/05/09 05:59:55;;;;;;;7.00;2.50;;;;;;;;;;5034847;28;20067;-42
2022/05/09 06:02:23;;;;;;;6.07;2.05;;;;;;;;;;5034785;28;20510;-45
2022/05/09 06:04:50;;;;;;;6.95;2.25;;;;;;;;;;5034671;28;20033;-43
2022/05/09 06:07:17;;;;;;;6.57;2.45;;;;;;;;;;5034286;28;20028;-42
2022/05/09 06:09:45;;;;;;;7.25;2.58;;;;;;;;;;5034606;28;20041;-42
2022/05/09 06:12:13;;;;;;;7.80;2.30;;;;;;;;;;5034580;28;20038;-42
2022/05/09 06:14:40;;;;;;;8.60;2.30;;;;;;;;;;5034526;28;20017;-46
2022/05/09 06:17:08;;;;;;;7.72;2.25;;;;;;;;;;5034478;28;20118;-43
2022/05/09 06:19:35;;;;;;;5.75;1.77;;;;;;;;;;5034305;28;20071;-43
2022/05/09 06:22:02;;;;;;;8.10;2.38;;;;;;;;;;5016949;28;20554;-42
2022/05/09 06:24:30;;;;;;;6.53;2.17;;;;;;;;;;5016821;28;20029;-48
2022/05/09 06:26:57;;;;;;;6.15;2.08;;;;;;;;;;5034759;28;20036;-43
2022/05/09 06:29:24;;;;;;;9.30;2.15;;;;;;;;;;5034693;28;20108;-43
2022/05/09 06:31:51;;;;;;;7.97;2.53;;;;;;;;;;5034686;28;20052;-46
2022/05/09 06:34:18;;;;;;;5.50;1.85;;;;;;;;;;5034498;28;20025;-43
2022/05/09 06:36:45;;;;;;;10.43;2.35;;;;;;;;;;5034584;28;20091;-46
2022/05/09 06:39:12;;;;;;;6.07;2.08;;;;;;;;;;5034503;28;20557;-44
2022/05/09 06:41:40;;;;;;;7.13;2.05;;;;;;;;;;5034289;28;20041;-45
2022/05/09 06:44:06;;;;;;;8.80;2.35;;;;;;;;;;5034352;28;20033;-45
2022/05/09 06:46:33;;;;;;;4.38;1.88;;;;;;;;;;5034136;28;20064;-44
2022/05/09 06:49:01;;;;;;;6.03;2.03;;;;;;;;;;5034386;28;20387;-45
2022/05/09 06:51:28;;;;;;;7.78;2.40;;;;;;;;;;5034296;28;20060;-45
2022/05/09 06:53:56;;;;;;;4.05;1.75;;;;;;;;;;5034151;28;20036;-42
2022/05/09 06:56:23;;;;;;;6.63;2.08;;;;;;;;;;5034214;28;20021;-45
2022/05/09 06:58:50;;;;;;;5.45;1.40;;;;;;;;;;5034179;28;20024;-44
2022/05/09 07:01:19;;;;;;;4.03;1.70;;;;;;;;;;5016208;28;20172;-45
2022/05/09 07:03:46;;;;;;;4.80;1.58;;;;;;;;;;5033874;28;20037;-42
2022/05/09 07:06:13;;;;;;;3.30;1.60;;;;;;;;;;5178709;22;20412;-44
2022/05/09 07:08:42;;;;;;;6.50;2.25;;;;;;;;;;4977128;28;20113;-47
2022/05/09 07:11:11;;;;;;;5.45;1.80;;;;;;;;;;4994460;28;20051;-48
2022/05/09 07:13:39;;;;;;;5.95;2.03;;;;;;;;;;4994399;28;20117;-44
2022/05/09 07:16:08;;;;;;;7.32;2.20;;;;;;;;;;4994340;28;20026;-45
2022/05/09 07:18:36;;;;;;;5.20;1.60;;;;;;;;;;4993455;28;20065;-45
2022/05/09 07:21:03;;;;;;;5.03;1.95;;;;;;;;;;4994508;28;20031;-44
2022/05/09 07:23:30;;;;;;;5.85;2.42;;;;;;;;;;4994358;28;20049;-45
2022/05/09 07:25:57;;;;;;;3.78;1.55;;;;;;;;;;4994111;28;20084;-45
2022/05/09 07:28:27;;;;;;;5.43;1.60;;;;;;;;;;4994208;28;20404;-45
2022/05/09 07:30:56;;;;;;;4.90;1.55;;;;;;;;;;4994323;28;20073;-45
2022/05/09 07:33:23;;;;;;;5.45;1.80;;;;;;;;;;4993999;28;20039;-45
2022/05/09 07:35:50;;;;;;;6.20;1.92;;;;;;;;;;4976431;28;20451;-44
2022/05/09 07:38:17;;;;;;;5.90;1.95;;;;;;;;;;4993997;28;20484;-46
2022/05/09 07:40:46;;;;;;;4.55;1.33;;;;;;;;;;4994035;28;20030;-47
2022/05/09 07:43:17;;;;;;;3.08;1.23;;;;;;;;;;4993849;28;20038;-46
2022/05/09 07:45:44;;;;;;;5.55;1.70;;;;;;;;;;4993718;28;20507;-45
2022/05/09 07:48:12;;;;;;;4.15;1.52;;;;;;;;;;4993822;28;20026;-44
2022/05/09 07:50:40;;;;;;;4.22;1.70;;;;;;;;;;4993738;28;20392;-44
2022/05/09 07:53:08;;;;;;;6.72;1.98;;;;;;;;;;4993728;28;20449;-44
2022/05/09 07:55:34;;;;;;;3.67;1.60;;;;;;;;;;4993680;28;20030;-44
2022/05/09 07:58:02;;;;;;;3.40;1.50;;;;;;;;;;4993675;28;20065;-45
2022/05/09 08:00:29;;;;;;;3.15;1.50;;;;;;;;;;4993642;28;20026;-45
2022/05/09 08:02:56;;;;;;;4.55;1.45;;;;;;;;;;4993625;28;20403;-45
2022/05/09 08:05:23;;;;;;;3.50;1.30;;;;;;;;;;4993540;28;20038;-46
2022/05/09 08:07:50;;;;;;;4.55;1.52;;;;;;;;;;4993356;28;20540;-45
2022/05/09 08:10:17;;;;;;;4.20;1.40;;;;;;;;;;4993505;28;20026;-46
2022/05/09 08:12:45;;;;;;;5.35;1.30;;;;;;;;;;4993433;28;20396;-45
2022/05/09 08:15:13;;;;;;;4.70;1.40;;;;;;;;;;4993416;28;20030;-45
2022/05/09 08:17:40;;;;;;;4.80;1.88;;;;;;;;;;4993212;28;20043;-44
2022/05/09 08:20:08;;;;;;;3.15;1.30;;;;;;;;;;4993292;28;20030;-44
2022/05/09 08:22:35;;;;;;;3.83;1.38;;;;;;;;;;4993376;28;20026;-44
2022/05/09 08:25:03;;;;;;;3.25;1.20;;;;;;;;;;4993322;28;20492;-44
2022/05/09 08:27:30;;;;;;;5.70;1.50;;;;;;;;;;4993154;28;20034;-47
2022/05/09 08:29:58;;;;;;;2.72;1.27;;;;;;;;;;4993102;28;20468;-46
2022/05/09 08:32:26;;;;;;;3.95;1.55;;;;;;;;;;4993052;28;20045;-44
2022/05/09 08:34:53;;;;;;;4.30;1.20;;;;;;;;;;4993230;28;20022;-45
2022/05/09 08:37:21;;;;;;;4.45;1.25;;;;;;;;;;4993030;28;20041;-44
2022/05/09 08:39:48;;;;;;;2.83;1.25;;;;;;;;;;4993488;28;20030;-45
2022/05/09 08:42:18;;;;;;;3.15;1.08;;;;;;;;;;4993184;28;20037;-44
2022/05/09 08:44:48;;;;;;;3.28;1.30;;;;;;;;;;4992983;28;20089;-47
2022/05/09 08:47:22;;;;;;;3.38;1.20;;;;;;;;;;4993254;28;20388;-44
2022/05/09 08:49:58;;;;;;;2.08;1.05;;;;;;;;;;4993150;28;20045;-44
2022/05/09 08:52:26;;;;;;;2.83;1.20;;;;;;;;;;4993031;28;20469;-44
2022/05/09 08:54:55;;;;;;;2.65;1.23;;;;;;;;;;4993037;28;20030;-45
2022/05/09 08:57:24;;;;;;;2.92;1.00;;;;;;;;;;4993007;28;20087;-44
2022/05/09 08:59:55;;;;;;;2.40;1.10;;;;;;;;;;4993052;28;20035;-45
2022/05/09 09:02:34;;;;;;;3.40;1.20;;;;;;;;;;4993357;28;20041;-44
2022/05/09 09:05:03;;;;;;;3.13;1.17;;;;;;;;;;4992878;28;20030;-45
2022/05/09 09:07:53;;;;;;;3.17;2.13;;;;;;;;;;4992532;28;20046;-45
2022/05/09 09:10:43;;;;;;;2.63;1.70;;;;;;;;;;4992948;28;20076;-44
2022/05/09 09:13:25;;;;;;;5.53;2.25;;;;;;;;;;4982897;28;20098;-44
2022/05/09 09:16:12;;;;;;;2.90;1.77;;;;;;;;;;4992823;28;20022;-48
2022/05/09 09:18:50;;;;;;;6.00;1.75;;;;;;;;;;4992697;28;20502;-45
2022/05/09 09:21:20;;;;;;;3.97;2.10;;;;;;;;;;4992757;28;20564;-46
2022/05/09 09:24:05;;;;;;;5.47;1.90;;;;;;;;;;4992801;28;20034;-46
2022/05/09 09:26:41;;;;;;;3.85;2.38;;;;;;;;;;4992650;28;20101;-44
2022/05/09 09:29:11;;;;;;;3.47;1.75;;;;;;;;;;4992764;28;20043;-45
2022/05/09 09:31:40;;;;;;;4.00;1.85;;;;;;;;;;4992669;28;20455;-49
2022/05/09 09:34:26;;;;;;;5.70;1.95;;;;;;;;;;4992711;28;20019;-45
2022/05/09 09:37:13;;;;;;;3.42;1.92;;;;;;;;;;4992526;28;20081;-48
2022/05/09 09:39:40;;;;;;;3.33;1.58;;;;;;;;;;4992551;28;20061;-45
2022/05/09 09:42:07;;;;;;;3.08;1.73;;;;;;;;;;4977089;28;20038;-44
2022/05/09 09:44:38;;;;;;;3.92;2.00;;;;;;;;;;4996174;28;20371;-45
2022/05/09 09:47:13;;;;;;;7.00;1.60;;;;;;;;;;4995887;28;20036;-45
2022/05/09 09:49:41;;;;;;;3.35;1.73;;;;;;;;;;4996086;28;20035;-45
2022/05/09 09:52:19;;;;;;;3.65;1.98;;;;;;;;;;4978439;28;20046;-46
2022/05/09 09:54:57;;;;;;;3.15;1.95;;;;;;;;;;4995996;28;20022;-46
2022/05/09 09:57:28;;;;;;;4.63;1.60;;;;;;;;;;4995790;28;20034;-44
2022/05/09 09:59:57;;;;;;;4.60;2.10;;;;;;;;;;4995888;28;20080;-45
2022/05/09 10:02:32;;;;;;;2.60;1.35;;;;;;;;;;4995760;28;20061;-44
2022/05/09 10:05:10;;;;;;;3.20;1.80;;;;;;;;;;4995751;28;20023;-45
2022/05/09 10:07:39;;;;;;;4.22;1.48;;;;;;;;;;4995627;28;20047;-45
2022/05/09 10:10:20;;;;;;;4.47;1.88;;;;;;;;;;4995623;28;20125;-44
2022/05/09 10:12:51;;;;;;;4.22;2.20;;;;;;;;;;4995585;28;20034;-44
2022/05/09 10:15:26;;;;;;;4.30;1.88;;;;;;;;;;4995731;28;20041;-50
2022/05/09 10:17:53;;;;;;;6.15;1.70;;;;;;;;;;4995516;28;20037;-45
2022/05/09 10:20:28;;;;;;;4.80;2.33;;;;;;;;;;4995532;28;20030;-44
2022/05/09 10:25:59;;;;;;;3.53;1.30;;;;;;;;;;4995548;28;20097;-44
2022/05/09 10:28:26;;;;;;;8.88;1.77;;;;;;;;;;4995405;28;20034;-45
2022/05/09 10:31:01;;;;;;;3.22;1.67;;;;;;;;;;4995307;28;20476;-48
2022/05/09 10:33:57;;;;;;;3.85;2.03;;;;;;;;;;4995453;28;20050;-46
2022/05/09 10:36:29;;;;;;;3.97;1.85;;;;;;;;;;4926010;28;20047;-46
2022/05/09 10:39:07;;;;;;;3.47;1.77;;;;;;;;;;4995142;28;20065;-45
2022/05/09 10:41:46;;;;;;;3.30;1.50;;;;;;;;;;4977598;28;20125;-47
2022/05/09 10:44:15;;;;;;;4.95;1.98;;;;;;;;;;4995056;28;20030;-45
2022/05/09 10:46:48;;;;;;;5.85;1.80;;;;;;;;;;4995137;28;20045;-45
2022/05/09 10:49:24;;;;;;;8.15;2.15;;;;;;;;;;4994850;28;20035;-46
2022/05/09 10:52:04;;;;;;;4.70;1.88;;;;;;;;;;4994800;28;20118;-45
2022/05/09 10:54:42;;;;;;;2.88;1.33;;;;;;;;;;4994780;28;20101;-44
2022/05/09 10:57:29;;;;;;;4.35;1.65;;;;;;;;;;4977175;28;20394;-46
2022/05/09 11:00:03;;;;;;;4.90;2.33;;;;;;;;;;4994384;28;20042;-46
2022/05/09 11:02:38;;;;;;;4.93;1.80;;;;;;;;;;4994721;28;20042;-45
2022/05/09 11:05:06;;;;;;;4.43;1.52;;;;;;;;;;4994507;28;20030;-44
2022/05/09 11:07:39;;;;;;;3.65;1.90;;;;;;;;;;4994516;28;20069;-44
2022/05/09 11:10:27;;;;;;;9.63;1.60;;;;;;;;;;4994475;28;20041;-44
2022/05/09 11:13:03;;;;;;;5.15;1.48;;;;;;;;;;4994489;28;20035;-45
2022/05/09 11:15:30;;;;;;;4.22;2.13;;;;;;;;;;4994296;28;20034;-45
2022/05/09 11:18:19;;;;;;;4.15;1.90;;;;;;;;;;4994191;28;20443;-45
2022/05/09 11:21:12;;;;;;;5.05;1.63;;;;;;;;;;4994400;28;20109;-45
2022/05/09 11:23:54;;;;;;;3.95;1.60;;;;;;;;;;4994288;28;20033;-44
2022/05/09 11:26:28;;;;;;;5.03;2.00;;;;;;;;;;4994169;28;20172;-45
2022/05/09 11:29:13;;;;;;;5.18;1.52;;;;;;;;;;4994183;28;20396;-46
2022/05/09 11:31:46;;;;;;;5.07;1.67;;;;;;;;;;4994089;28;20049;-45
2022/05/09 11:34:25;;;;;;;7.35;1.63;;;;;;;;;;4994081;28;20105;-46
2022/05/09 11:37:04;;;;;;;5.80;2.28;;;;;;;;;;4992704;28;20042;-46
2022/05/09 11:39:37;;;;;;;6.15;1.60;;;;;;;;;;4992687;28;20030;-47
2022/05/09 11:43:27;;;;;;;5.03;1.85;;;;;;;;;;4990094;28;20041;-45
2022/05/09 11:45:00;;;;;;;4.40;1.60;;;;;;;;;;4993411;28;20065;-44
2022/05/09 11:47:29;;;;;;;5.10;1.83;;;;;;;;;;4993427;28;20436;-45
2022/05/09 11:50:10;;;;;;;11.05;2.33;;;;;;;;;;4993438;28;20469;-44
2022/05/09 11:52:40;;;;;;;4.15;1.50;;;;;;;;;;4993366;28;20045;-44
2022/05/09 11:55:13;;;;;;;3.88;1.17;;;;;;;;;;4993351;28;20503;-45
2022/05/09 11:57:41;;;;;;;5.53;2.08;;;;;;;;;;4993353;28;20034;-47
2022/05/09 12:00:10;;;;;;;3.78;1.58;;;;;;;;;;4993272;28;20034;-45
2022/05/09 12:02:46;;;;;;;3.15;2.13;;;;;;;;;;4993319;28;20091;-45
2022/05/09 12:05:31;;;;;;;8.60;1.73;;;;;;;;;;4991706;28;20109;-47
2022/05/09 12:08:05;;;;;;;6.85;2.00;;;;;;;;;;4992998;28;20050;-50
2022/05/09 12:10:35;;;;;;;7.28;2.03;;;;;;;;;;4993074;28;20065;-52
2022/05/09 12:13:24;;;;;;;5.35;0.98;;;;;;;;;;4987780;28;20128;-47
2022/05/09 12:15:54;;;;;;;5.47;1.20;;;;;;;;;;4972804;28;20396;-45
2022/05/09 12:18:47;;;;;;;3.92;1.27;;;;;;;;;;4992444;28;20114;-49
2022/05/09 12:21:19;;;;;;;5.25;1.63;;;;;;;;;;4992240;28;20030;-49
2022/05/09 12:23:47;;;;;;;7.72;1.63;;;;;;;;;;4992295;28;20109;-51
2022/05/09 12:26:30;;;;;;;3.50;1.30;;;;;;;;;;4993017;28;20052;-50
2022/05/09 12:29:09;;;;;;;8.23;1.27;;;;;;;;;;4995925;28;20698;-46
2022/05/09 12:31:44;;;;;;;9.52;1.40;;;;;;;;;;4995479;28;20026;-50
2022/05/09 12:34:12;;;;;;;7.90;1.60;;;;;;;;;;4992175;28;20041;-52
2022/05/09 12:36:39;;;;;;;10.77;1.90;;;;;;;;;;4990050;28;20034;-47
2022/05/09 12:39:19;;;;;;;4.25;1.05;;;;;;;;;;4998515;28;20036;-49
2022/05/09 12:41:53;;;;;;;6.15;1.10;;;;;;;;;;5011599;28;20084;-51
2022/05/09 12:44:28;;;;;;;5.07;1.10;;;;;;;;;;5011604;28;20045;-46
2022/05/09 12:47:04;;;;;;;7.63;1.25;;;;;;;;;;5001158;28;20065;-46
2022/05/09 12:49:40;;;;;;;5.32;1.02;;;;;;;;;;4992052;28;20034;-49
2022/05/09 12:52:08;;;;;;;4.53;1.25;;;;;;;;;;4991948;28;20066;-50
2022/05/09 12:54:37;;;;;;;6.25;1.52;;;;;;;;;;4991765;28;20041;-47
2022/05/09 12:57:05;;;;;;;10.32;1.73;;;;;;;;;;4992150;28;20034;-44
2022/05/09 12:59:46;;;;;;;5.28;1.60;;;;;;;;;;4991000;28;20030;-46
2022/05/09 13:02:20;;;;;;;4.18;0.93;;;;;;;;;;4992079;28;20030;-47
2022/05/09 13:04:49;;;;;;;9.70;1.42;;;;;;;;;;4974763;28;20396;-48
2022/05/09 13:07:16;;;;;;;6.47;1.60;;;;;;;;;;4991733;28;20408;-49
2022/05/09 13:09:47;;;;;;;11.65;1.33;;;;;;;;;;4990703;28;20027;-50
2022/05/09 13:12:34;;;;;;;4.85;1.40;;;;;;;;;;4991807;28;20070;-47
2022/05/09 13:15:11;;;;;;;7.30;1.20;;;;;;;;;;4991977;28;20484;-45
2022/05/09 13:17:39;;;;;;;9.07;1.70;;;;;;;;;;4994602;28;20042;-46
2022/05/09 13:20:14;;;;;;;4.10;1.55;;;;;;;;;;4993101;28;20081;-45
2022/05/09 13:22:56;;;;;;;11.13;1.63;;;;;;;;;;5003621;28;20531;-45
2022/05/09 13:25:32;;;;;;;6.07;1.40;;;;;;;;;;5014556;28;20038;-47
2022/05/09 13:28:01;;;;;;;14.88;2.00;;;;;;;;;;5014352;28;20038;-48
2022/05/09 13:30:33;;;;;;;13.50;1.85;;;;;;;;;;5013774;28;20034;-49
2022/05/09 13:32:59;;;;;;;8.68;1.50;;;;;;;;;;5014251;28;20042;-47
2022/05/09 13:35:29;;;;;;;8.25;1.50;;;;;;;;;;5014068;28;20022;-48
2022/05/09 13:37:56;;;;;;;8.93;1.63;;;;;;;;;;5014434;28;20026;-49
2022/05/09 13:40:24;;;;;;;6.43;1.73;;;;;;;;;;5013831;28;20049;-49
2022/05/09 13:42:52;;;;;;;8.88;1.48;;;;;;;;;;5013650;28;20088;-47
2022/05/09 13:45:21;;;;;;;6.80;1.67;;;;;;;;;;5013952;28;20034;-50
2022/05/09 13:47:52;;;;;;;9.15;1.77;;;;;;;;;;5014161;28;20172;-49
2022/05/09 13:50:20;;;;;;;14.63;2.53;;;;;;;;;;5014125;28;20033;-49
2022/05/09 13:52:48;;;;;;;7.20;1.90;;;;;;;;;;5013263;28;20396;-50
2022/05/09 13:55:35;;;;;;;6.63;1.80;;;;;;;;;;5013917;28;20164;-48
2022/05/09 13:58:03;;;;;;;5.68;1.90;;;;;;;;;;5013538;28;20038;-44
2022/05/09 14:00:32;;;;;;;7.85;1.88;;;;;;;;;;5014231;28;20038;-49
2022/05/09 14:03:00;;;;;;;8.60;1.92;;;;;;;;;;5013006;28;20029;-45
2022/05/09 14:05:30;;;;;;;7.43;2.00;;;;;;;;;;5013319;28;20034;-50
2022/05/09 14:07:59;;;;;;;5.82;1.90;;;;;;;;;;5014057;28;20499;-46
2022/05/09 14:10:26;;;;;;;12.07;2.25;;;;;;;;;;5013617;28;20475;-46
2022/05/09 14:12:54;;;;;;;8.70;2.10;;;;;;;;;;5012571;28;20144;-48
2022/05/09 14:15:22;;;;;;;7.88;2.28;;;;;;;;;;5013697;28;20472;-46
2022/05/09 14:17:56;;;;;;;7.72;1.92;;;;;;;;;;5013558;28;20045;-48
2022/05/09 14:20:28;;;;;;;6.60;2.00;;;;;;;;;;5013694;28;20054;-46
2022/05/09 14:22:55;;;;;;;9.90;2.25;;;;;;;;;;5013027;28;20033;-48
2022/05/09 14:30:52;;;;;;;12.20;2.53;;;;;;;;;;5013582;28;20044;-49
2022/05/09 14:33:36;;;;;;;8.45;2.22;;;;;;;;;;5013357;28;20426;-52
2022/05/09 14:36:05;;;;;;;9.18;2.20;;;;;;;;;;5012821;28;20033;-47
2022/05/09 14:38:33;;;;;;;9.95;2.35;;;;;;;;;;5013244;28;20438;-51
2022/05/09 14:44:29;;;;;;;15.27;2.42;;;;;;;;;;5012833;28;20129;-49
2022/05/09 14:47:01;;;;;;;7.65;2.28;;;;;;;;;;5004691;28;20038;-48
2022/05/09 14:49:29;;;;;;;9.85;2.20;;;;;;;;;;5011698;28;20052;-50
2022/05/09 14:52:01;;;;;;;6.32;2.22;;;;;;;;;;5013026;28;20076;-46
2022/05/09 14:54:29;;;;;;;10.52;2.60;;;;;;;;;;5011544;28;20030;-51
2022/05/09 14:59:45;;;;;;;7.13;2.40;;;;;;;;;;5012975;28;20140;-50
2022/05/09 15:02:20;;;;;;;8.48;2.80;;;;;;;;;;5013040;28;20084;-47
2022/05/09 15:04:48;;;;;;;13.50;2.70;;;;;;;;;;5012318;28;20492;-48
2022/05/09 15:07:15;;;;;;;8.35;2.50;;;;;;;;;;5011876;28;20041;-48
2022/05/09 15:09:42;;;;;;;6.85;2.47;;;;;;;;;;5012961;28;20136;-45
2022/05/09 15:12:18;;;;;;;10.35;2.60;;;;;;;;;;5012272;28;20546;-45
2022/05/09 15:14:46;;;;;;;10.38;2.70;;;;;;;;;;5012890;28;20080;-47